Time,TemperatureF,DewpointF,PressureIn,WindDirection,WindDirectionDegrees,WindSpeedMPH,WindSpeedGustMPH,Humidity,HourlyPrecipIn,Conditions,Clouds,dailyrainin,SolarRadiationWatts/m^2,SoftwareType,DateUTC
2013-02-07 00:07:00,42.8,15.4,29.70,ESE,112,0.0,0.0,24,0.00,,,-99.99,0.0,Linux-Irox,2013-02-07 08:07:00,
2013-02-07 00:17:00,43.0,15.6,29.69,East,90,0.2,0.9,24,0.00,,,-99.99,0.0,Linux-Irox,2013-02-07 08:17:00,
2013-02-07 00:27:00,43.0,15.6,29.69,WSW,247,0.4,1.3,24,0.00,,,-99.99,0.0,Linux-Irox,2013-02-07 08:27:00,
2013-02-07 00:37:00,43.2,15.8,29.70,West,270,0.4,2.9,24,0.00,,,-99.99,0.0,Linux-Irox,2013-02-07 08:37:00,
2013-02-07 00:47:00,43.2,15.8,29.70,West,270,0.9,3.6,24,0.00,,,-99.99,0.0,Linux-Irox,2013-02-07 08:47:00,
2013-02-07 00:57:00,43.2,16.2,29.70,West,270,0.7,0.0,25,0.00,,,-99.99,0.0,Linux-Irox,2013-02-07 08:57:00,
2013-02-07 01:07:00,43.0,16.3,29.70,WSW,247,0.9,2.2,26,0.00,,,-99.99,0.0,Linux-Irox,2013-02-07 09:07:00,
2013-02-07 01:17:00,42.6,16.0,29.69,ESE,112,0.9,1.8,26,0.00,,,-99.99,0.0,Linux-Irox,2013-02-07 09:17:00,
2013-02-07 01:27:00,42.6,15.6,29.69,South,180,0.9,1.6,25,0.00,,,-99.99,0.0,Linux-Irox,2013-02-07 09:27:00,
2013-02-07 01:37:00,42.6,15.6,29.69,ESE,112,0.2,0.0,25,0.00,,,-99.99,0.0,Linux-Irox,2013-02-07 09:37:00,
2013-02-07 01:47:00,42.8,15.4,29.69,West,270,0.4,0.9,24,0.00,,,-99.99,0.0,Linux-Irox,2013-02-07 09:47:00,
2013-02-07 01:57:00,42.8,15.8,29.69,SE,135,1.1,1.3,25,0.00,,,-99.99,0.0,Linux-Irox,2013-02-07 09:57:00,
2013-02-07 02:07:00,42.8,16.2,29.69,SE,135,0.7,2.0,26,0.00,,,-99.99,0.0,Linux-Irox,2013-02-07 10:07:00,
2013-02-07 02:17:00,42.8,16.2,29.68,SSW,202,0.4,0.0,26,0.00,,,-99.99,0.0,Linux-Irox,2013-02-07 10:17:00,
2013-02-07 02:27:00,42.8,16.2,29.68,ESE,112,0.7,2.0,26,0.00,,,-99.99,0.0,Linux-Irox,2013-02-07 10:27:00,
2013-02-07 02:37:00,43.0,16.3,29.68,SW,225,0.7,1.1,26,0.00,,,-99.99,0.0,Linux-Irox,2013-02-07 10:37:00,
2013-02-07 02:47:00,43.0,16.7,29.68,West,270,0.7,3.3,27,0.00,,,-99.99,0.0,Linux-Irox,2013-02-07 10:47:00,
2013-02-07 02:57:00,43.0,16.7,29.68,SE,135,0.4,0.0,27,0.00,,,-99.99,0.0,Linux-Irox,2013-02-07 10:57:00,
2013-02-07 03:07:00,43.2,16.5,29.68,WSW,247,0.9,2.0,26,0.00,,,-99.99,0.0,Linux-Irox,2013-02-07 11:07:00,
2013-02-07 03:17:00,43.2,16.5,29.68,NW,315,0.9,0.0,26,0.00,,,-99.99,0.0,Linux-Irox,2013-02-07 11:17:00,
2013-02-07 03:27:00,43.2,16.9,29.68,SW,225,0.2,1.8,27,0.00,,,-99.99,0.0,Linux-Irox,2013-02-07 11:27:00,
2013-02-07 03:37:00,43.2,16.9,29.68,SW,225,1.1,2.9,27,0.00,,,-99.99,0.0,Linux-Irox,2013-02-07 11:37:00,
2013-02-07 03:47:00,43.0,16.7,29.68,West,270,0.9,2.9,27,0.00,,,-99.99,0.0,Linux-Irox,2013-02-07 11:47:00,
2013-02-07 03:57:00,42.8,16.5,29.67,SSE,157,1.1,1.6,27,0.00,,,-99.99,0.0,Linux-Irox,2013-02-07 11:57:00,
2013-02-07 04:07:00,42.6,17.1,29.67,West,270,0.9,1.3,29,0.00,,,-99.99,0.0,Linux-Irox,2013-02-07 12:07:00,
2013-02-07 04:17:00,42.6,17.1,29.68,West,270,1.6,1.8,29,0.00,,,-99.99,0.0,Linux-Irox,2013-02-07 12:17:00,
2013-02-07 04:27:00,42.4,16.9,29.68,WSW,247,1.3,0.0,29,0.00,,,-99.99,0.0,Linux-Irox,2013-02-07 12:27:00,
2013-02-07 04:37:00,42.3,16.7,29.68,South,180,0.7,1.6,29,0.00,,,-99.99,0.0,Linux-Irox,2013-02-07 12:37:00,
2013-02-07 04:47:00,41.7,16.2,29.68,WSW,247,0.7,2.2,29,0.00,,,-99.99,0.0,Linux-Irox,2013-02-07 12:47:00,
2013-02-07 04:57:00,41.4,15.8,29.68,WSW,247,0.2,0.0,29,0.00,,,-99.99,0.0,Linux-Irox,2013-02-07 12:57:00,
2013-02-07 05:07:00,41.2,16.0,29.68,NW,315,0.2,2.0,30,0.00,,,-99.99,0.0,Linux-Irox,2013-02-07 13:07:00,
2013-02-07 05:17:00,41.0,15.8,29.68,NW,315,0.9,0.0,30,0.00,,,-99.99,0.0,Linux-Irox,2013-02-07 13:17:00,
2013-02-07 05:27:00,40.8,15.6,29.68,West,270,0.2,0.0,30,0.00,,,-99.99,0.0,Linux-Irox,2013-02-07 13:27:00,
2013-02-07 05:37:00,40.6,15.4,29.68,SSE,157,0.0,0.0,30,0.00,,,-99.99,0.0,Linux-Irox,2013-02-07 13:37:00,
2013-02-07 05:47:00,40.6,15.4,29.68,WSW,247,0.0,0.0,30,0.00,,,-99.99,0.0,Linux-Irox,2013-02-07 13:47:00,
2013-02-07 05:57:00,40.6,15.4,29.67,ENE,67,0.0,0.0,30,0.00,,,-99.99,0.0,Linux-Irox,2013-02-07 13:57:00,
2013-02-07 06:01:00,40.6,15.4,29.67,SE,135,0.0,0.0,30,0.00,,,-99.99,0.0,Linux-Irox,2013-02-07 14:01:00,
2013-02-07 06:07:00,40.6,15.4,29.67,SE,135,0.0,0.0,30,0.00,,,-99.99,0.0,Linux-Irox,2013-02-07 14:07:00,
2013-02-07 06:16:00,40.5,15.3,29.67,ENE,67,0.0,0.0,30,0.00,,,-99.99,0.0,Linux-Irox,2013-02-07 14:16:00,
2013-02-07 06:17:00,40.5,15.3,29.66,ESE,112,0.0,0.0,30,0.00,,,-99.99,0.0,Linux-Irox,2013-02-07 14:17:00,
2013-02-07 06:27:00,40.6,15.4,29.66,WSW,247,0.2,0.0,30,0.00,,,-99.99,0.0,Linux-Irox,2013-02-07 14:27:00,
2013-02-07 06:31:00,40.8,15.6,29.66,SSE,157,1.1,0.0,30,0.00,,,-99.99,0.0,Linux-Irox,2013-02-07 14:31:00,
2013-02-07 06:37:00,40.6,15.4,29.65,West,270,0.4,1.6,30,0.00,,,-99.99,0.0,Linux-Irox,2013-02-07 14:37:00,
2013-02-07 06:46:00,40.5,15.3,29.65,ESE,112,1.1,0.0,30,0.00,,,-99.99,0.0,Linux-Irox,2013-02-07 14:46:00,
2013-02-07 06:47:00,40.5,15.3,29.65,ENE,67,0.4,0.0,30,0.00,,,-99.99,0.0,Linux-Irox,2013-02-07 14:47:00,
2013-02-07 06:57:00,40.3,15.1,29.65,NW,315,0.0,0.0,30,0.00,,,-99.99,0.0,Linux-Irox,2013-02-07 14:57:00,
2013-02-07 07:01:00,40.3,15.1,29.65,East,90,0.0,0.0,30,0.00,,,-99.99,0.0,Linux-Irox,2013-02-07 15:01:00,
2013-02-07 07:07:00,40.5,15.3,29.65,NNE,22,0.0,0.0,30,0.00,,,-99.99,0.0,Linux-Irox,2013-02-07 15:07:00,
2013-02-07 07:16:00,40.5,15.3,29.65,WNW,292,0.0,0.0,30,0.00,,,-99.99,0.0,Linux-Irox,2013-02-07 15:16:00,
2013-02-07 07:17:00,40.5,15.3,29.65,WSW,247,0.0,0.0,30,0.00,,,-99.99,0.0,Linux-Irox,2013-02-07 15:17:00,
2013-02-07 07:27:00,40.6,15.4,29.65,NW,315,0.0,0.0,30,0.00,,,-99.99,0.0,Linux-Irox,2013-02-07 15:27:00,
2013-02-07 07:31:00,40.6,15.4,29.65,East,90,0.0,0.0,30,0.00,,,-99.99,0.0,Linux-Irox,2013-02-07 15:31:00,
2013-02-07 07:37:00,40.8,15.6,29.64,West,270,0.0,0.9,30,0.00,,,-99.99,0.0,Linux-Irox,2013-02-07 15:37:00,
2013-02-07 07:46:00,41.0,15.8,29.64,NNW,337,0.2,0.0,30,0.00,,,-99.99,0.0,Linux-Irox,2013-02-07 15:46:00,
2013-02-07 07:47:00,41.2,16.0,29.64,ENE,67,0.0,0.0,30,0.00,,,-99.99,0.0,Linux-Irox,2013-02-07 15:47:00,
2013-02-07 07:57:00,41.2,16.0,29.65,NNE,22,0.0,0.0,30,0.00,,,-99.99,0.0,Linux-Irox,2013-02-07 15:57:00,
2013-02-07 08:01:00,41.5,16.3,29.65,ENE,67,0.0,0.0,30,0.00,,,-99.99,0.0,Linux-Irox,2013-02-07 16:01:00,
2013-02-07 08:07:00,41.7,16.5,29.65,West,270,0.0,0.0,30,0.00,,,-99.99,0.0,Linux-Irox,2013-02-07 16:07:00,
2013-02-07 08:16:00,42.4,17.2,29.65,WSW,247,0.2,0.0,30,0.00,,,-99.99,0.0,Linux-Irox,2013-02-07 16:16:00,
2013-02-07 08:17:00,42.4,17.2,29.65,WSW,247,0.0,0.0,30,0.00,,,-99.99,0.0,Linux-Irox,2013-02-07 16:17:00,
2013-02-07 08:27:00,43.3,17.1,29.65,SE,135,0.0,0.0,27,0.00,,,-99.99,0.0,Linux-Irox,2013-02-07 16:27:00,
2013-02-07 08:31:00,43.5,17.2,29.65,ESE,112,0.0,0.0,27,0.00,,,-99.99,0.0,Linux-Irox,2013-02-07 16:31:00,
2013-02-07 08:37:00,43.7,17.4,29.66,SW,225,0.0,0.0,27,0.00,,,-99.99,0.0,Linux-Irox,2013-02-07 16:37:00,
2013-02-07 08:46:00,44.4,17.4,29.66,SW,225,0.0,0.0,25,0.00,,,-99.99,0.0,Linux-Irox,2013-02-07 16:46:00,
2013-02-07 08:47:00,44.6,17.6,29.66,WSW,247,0.0,0.0,25,0.00,,,-99.99,0.0,Linux-Irox,2013-02-07 16:47:00,
2013-02-07 08:57:00,45.1,17.8,29.64,West,270,0.2,2.0,24,0.00,,,-99.99,0.0,Linux-Irox,2013-02-07 16:57:00,
2013-02-07 09:01:00,45.3,17.6,29.64,West,270,1.6,2.9,23,0.00,,,-99.99,0.0,Linux-Irox,2013-02-07 17:01:00,
2013-02-07 09:07:00,45.5,17.4,29.64,WSW,247,1.1,1.1,22,0.00,,,-99.99,0.0,Linux-Irox,2013-02-07 17:07:00,
2013-02-07 09:16:00,46.2,18.1,29.64,WSW,247,1.3,2.9,22,0.00,,,-99.99,0.0,Linux-Irox,2013-02-07 17:16:00,
2013-02-07 09:17:00,46.2,18.1,29.65,West,270,0.7,2.5,22,0.00,,,-99.99,0.0,Linux-Irox,2013-02-07 17:17:00,
2013-02-07 09:27:00,46.4,17.6,29.65,West,270,1.8,3.8,20,0.00,,,-99.99,0.0,Linux-Irox,2013-02-07 17:27:00,
2013-02-07 09:31:00,46.4,17.6,29.65,NW,315,2.9,0.0,20,0.00,,,-99.99,0.0,Linux-Irox,2013-02-07 17:31:00,
2013-02-07 09:37:00,46.4,17.6,29.65,WSW,247,1.1,1.8,20,0.00,,,-99.99,0.0,Linux-Irox,2013-02-07 17:37:00,
2013-02-07 09:46:00,46.6,17.4,29.65,WSW,247,3.1,0.0,19,0.00,,,-99.99,0.0,Linux-Irox,2013-02-07 17:46:00,
2013-02-07 09:47:00,46.8,17.6,29.65,WNW,292,1.6,4.9,19,0.00,,,-99.99,0.0,Linux-Irox,2013-02-07 17:47:00,
2013-02-07 09:57:00,46.8,17.6,29.65,WSW,247,2.5,5.8,19,0.00,,,-99.99,0.0,Linux-Irox,2013-02-07 17:57:00,
2013-02-07 10:01:00,46.6,16.3,29.65,West,270,5.1,8.9,16,0.00,,,-99.99,0.0,Linux-Irox,2013-02-07 18:01:00,
2013-02-07 10:07:00,46.6,16.3,29.65,WSW,247,2.2,2.2,16,0.00,,,-99.99,0.0,Linux-Irox,2013-02-07 18:07:00,
2013-02-07 10:16:00,46.9,16.7,29.65,SW,225,3.1,6.0,16,0.00,,,-99.99,0.0,Linux-Irox,2013-02-07 18:16:00,
2013-02-07 10:17:00,46.9,16.7,29.65,SW,225,1.8,4.5,16,0.00,,,-99.99,0.0,Linux-Irox,2013-02-07 18:17:00,
2013-02-07 10:27:00,46.9,16.7,29.65,SW,225,1.6,2.5,16,0.00,,,-99.99,0.0,Linux-Irox,2013-02-07 18:27:00,
2013-02-07 10:31:00,46.9,16.7,29.65,SW,225,3.6,0.0,16,0.00,,,-99.99,0.0,Linux-Irox,2013-02-07 18:31:00,
2013-02-07 10:37:00,46.9,16.7,29.65,SW,225,1.8,2.2,16,0.00,,,-99.99,0.0,Linux-Irox,2013-02-07 18:37:00,
2013-02-07 10:46:00,46.6,16.3,29.65,West,270,5.6,5.6,16,0.00,,,-99.99,0.0,Linux-Irox,2013-02-07 18:46:00,
2013-02-07 10:47:00,46.9,16.7,29.65,NNW,337,2.2,0.0,16,0.00,,,-99.99,0.0,Linux-Irox,2013-02-07 18:47:00,
2013-02-07 10:57:00,47.5,16.5,29.65,ESE,112,2.0,2.0,14,0.00,,,-99.99,0.0,Linux-Irox,2013-02-07 18:57:00,
2013-02-07 11:02:00,48.2,17.2,29.65,WNW,292,4.0,6.2,14,0.00,,,-99.99,0.0,Linux-Irox,2013-02-07 19:02:00,
2013-02-07 11:07:00,48.2,17.2,29.65,SW,225,1.3,1.3,14,0.00,,,-99.99,0.0,Linux-Irox,2013-02-07 19:07:00,
2013-02-07 11:16:00,48.2,17.2,29.65,SSW,202,2.9,2.9,14,0.00,,,-99.99,0.0,Linux-Irox,2013-02-07 19:16:00,
2013-02-07 11:17:00,48.2,17.2,29.65,WSW,247,1.3,3.3,14,0.00,,,-99.99,0.0,Linux-Irox,2013-02-07 19:17:00,
2013-02-07 11:27:00,47.3,16.3,29.65,West,270,2.7,2.9,14,0.00,,,-99.99,0.0,Linux-Irox,2013-02-07 19:27:00,
2013-02-07 11:31:00,47.3,16.3,29.65,WSW,247,5.4,5.4,14,0.00,,,-99.99,0.0,Linux-Irox,2013-02-07 19:31:00,
2013-02-07 11:37:00,46.8,15.8,29.63,SW,225,2.0,2.2,14,0.00,,,-99.99,0.0,Linux-Irox,2013-02-07 19:37:00,
2013-02-07 11:46:00,46.0,16.2,29.63,WNW,292,3.1,8.3,17,0.00,,,-99.99,0.0,Linux-Irox,2013-02-07 19:46:00,
2013-02-07 11:47:00,45.9,16.0,29.63,West,270,1.6,3.6,17,0.00,,,-99.99,0.0,Linux-Irox,2013-02-07 19:47:00,
2013-02-07 11:57:00,45.3,16.5,29.63,SW,225,1.3,2.7,20,0.00,,,-99.99,0.0,Linux-Irox,2013-02-07 19:57:00,
2013-02-07 12:01:00,45.1,16.3,29.63,ESE,112,2.7,3.1,20,0.00,,,-99.99,0.0,Linux-Irox,2013-02-07 20:01:00,
2013-02-07 12:07:00,45.1,16.3,29.63,ESE,112,1.1,1.3,20,0.00,,,-99.99,0.0,Linux-Irox,2013-02-07 20:07:00,
2013-02-07 12:16:00,46.8,18.0,29.63,SW,225,4.0,5.1,20,0.00,,,-99.99,0.0,Linux-Irox,2013-02-07 20:16:00,
2013-02-07 12:17:00,46.8,18.0,29.63,South,180,1.8,1.8,20,0.00,,,-99.99,0.0,Linux-Irox,2013-02-07 20:17:00,
2013-02-07 12:27:00,46.6,17.8,29.63,SSE,157,2.0,2.0,20,0.00,,,-99.99,0.0,Linux-Irox,2013-02-07 20:27:00,
2013-02-07 12:31:00,46.4,17.6,29.63,ESE,112,3.8,6.0,20,0.00,,,-99.99,0.0,Linux-Irox,2013-02-07 20:31:00,
2013-02-07 12:37:00,46.6,17.8,29.61,North,0,0.9,0.0,20,0.00,,,-99.99,0.0,Linux-Irox,2013-02-07 20:37:00,
2013-02-07 12:46:00,45.9,17.4,29.61,WNW,292,2.5,0.0,21,0.00,,,-99.99,0.0,Linux-Irox,2013-02-07 20:46:00,
2013-02-07 12:47:00,45.9,17.4,29.61,SE,135,0.9,0.9,21,0.00,,,-99.99,0.0,Linux-Irox,2013-02-07 20:47:00,
2013-02-07 12:57:00,45.7,17.6,29.61,SE,135,1.3,1.6,22,0.00,,,-99.99,0.0,Linux-Irox,2013-02-07 20:57:00,
2013-02-07 13:01:00,46.0,18.3,29.61,South,180,2.2,0.0,23,0.00,,,-99.99,0.0,Linux-Irox,2013-02-07 21:01:00,
2013-02-07 13:07:00,45.9,18.1,29.61,WSW,247,0.7,1.8,23,0.00,,,-99.99,0.0,Linux-Irox,2013-02-07 21:07:00,
2013-02-07 13:16:00,46.4,18.7,29.61,WSW,247,2.2,2.9,23,0.00,,,-99.99,0.0,Linux-Irox,2013-02-07 21:16:00,
2013-02-07 13:17:00,46.4,18.7,29.61,SW,225,0.9,0.9,23,0.00,,,-99.99,0.0,Linux-Irox,2013-02-07 21:17:00,
2013-02-07 13:27:00,45.5,17.8,29.61,ESE,112,0.9,1.1,23,0.00,,,-99.99,0.0,Linux-Irox,2013-02-07 21:27:00,
2013-02-07 13:31:00,45.7,18.0,29.61,SSE,157,1.8,4.5,23,0.00,,,-99.99,0.0,Linux-Irox,2013-02-07 21:31:00,
2013-02-07 13:37:00,46.2,18.5,29.61,East,90,0.7,0.0,23,0.03,,,-99.99,0.0,Linux-Irox,2013-02-07 21:37:00,
2013-02-07 13:46:00,46.8,19.0,29.61,SE,135,2.2,5.6,23,0.03,,,-99.99,0.0,Linux-Irox,2013-02-07 21:46:00,
2013-02-07 13:47:00,46.6,18.9,29.61,West,270,0.9,0.0,23,0.03,,,-99.99,0.0,Linux-Irox,2013-02-07 21:47:00,
2013-02-07 13:57:00,46.2,18.5,29.60,South,180,0.7,0.0,23,0.03,,,-99.99,0.0,Linux-Irox,2013-02-07 21:57:00,
2013-02-07 14:01:00,46.4,18.7,29.60,West,270,1.1,0.0,23,0.03,,,-99.99,0.0,Linux-Irox,2013-02-07 22:01:00,
2013-02-07 14:07:00,47.1,19.4,29.60,NW,315,0.2,0.0,23,0.03,,,-99.99,0.0,Linux-Irox,2013-02-07 22:07:00,
2013-02-07 14:16:00,46.9,18.9,29.60,WSW,247,1.6,3.6,22,0.03,,,-99.99,0.0,Linux-Irox,2013-02-07 22:16:00,
2013-02-07 14:17:00,46.9,18.9,29.59,SW,225,0.9,2.5,22,0.03,,,-99.99,0.0,Linux-Irox,2013-02-07 22:17:00,
2013-02-07 14:27:00,47.7,19.2,29.59,North,0,0.9,2.0,21,0.03,,,-99.99,0.0,Linux-Irox,2013-02-07 22:27:00,
2013-02-07 14:31:00,47.7,19.2,29.59,South,180,2.2,0.0,21,0.03,,,-99.99,0.0,Linux-Irox,2013-02-07 22:31:00,
2013-02-07 14:37:00,47.7,19.2,29.59,West,270,1.1,3.8,21,0.03,,,-99.99,0.0,Linux-Irox,2013-02-07 22:37:00,
2013-02-07 14:46:00,46.8,18.3,29.59,SW,225,3.6,0.0,21,0.00,,,-99.99,0.0,Linux-Irox,2013-02-07 22:46:00,
2013-02-07 14:47:00,46.8,18.3,29.59,SW,225,1.6,0.0,21,0.00,,,-99.99,0.0,Linux-Irox,2013-02-07 22:47:00,
2013-02-07 14:57:00,48.4,19.6,29.56,SW,225,0.9,4.7,20,0.00,,,-99.99,0.0,Linux-Irox,2013-02-07 22:57:00,
2013-02-07 15:01:00,48.4,19.6,29.56,WSW,247,2.7,8.0,20,0.00,,,-99.99,0.0,Linux-Irox,2013-02-07 23:01:00,
2013-02-07 15:07:00,47.8,18.7,29.56,West,270,1.6,3.1,19,0.00,,,-99.99,0.0,Linux-Irox,2013-02-07 23:07:00,
2013-02-07 15:16:00,49.6,18.7,29.56,SW,225,4.7,5.4,14,0.00,,,-99.99,0.0,Linux-Irox,2013-02-07 23:16:00,
2013-02-07 15:17:00,49.6,18.7,29.57,SW,225,2.2,3.6,14,0.00,,,-99.99,0.0,Linux-Irox,2013-02-07 23:17:00,
2013-02-07 15:27:00,47.1,16.9,29.57,West,270,0.7,0.0,16,0.00,,,-99.99,0.0,Linux-Irox,2013-02-07 23:27:00,
2013-02-07 15:32:00,47.1,16.9,29.57,WSW,247,1.3,3.1,16,0.00,,,-99.99,0.0,Linux-Irox,2013-02-07 23:32:00,
2013-02-07 15:37:00,47.3,17.1,29.59,ESE,112,0.9,2.2,16,0.00,,,-99.99,0.0,Linux-Irox,2013-02-07 23:37:00,
2013-02-07 15:46:00,47.5,17.2,29.59,West,270,2.2,2.2,16,0.00,,,-99.99,0.0,Linux-Irox,2013-02-07 23:46:00,
2013-02-07 15:47:00,47.3,17.1,29.59,West,270,0.9,1.1,16,0.00,,,-99.99,0.0,Linux-Irox,2013-02-07 23:47:00,
2013-02-07 15:57:00,46.8,16.5,29.58,WSW,247,0.7,0.0,16,0.00,,,-99.99,0.0,Linux-Irox,2013-02-07 23:57:00,
2013-02-07 16:01:00,46.2,16.3,29.58,West,270,0.9,3.6,17,0.00,,,-99.99,0.0,Linux-Irox,2013-02-08 00:01:00,
2013-02-07 16:07:00,46.0,16.2,29.58,West,270,0.4,0.0,17,0.00,,,-99.99,0.0,Linux-Irox,2013-02-08 00:07:00,
2013-02-07 16:16:00,45.9,17.1,29.58,WSW,247,0.4,0.0,20,0.00,,,-99.99,0.0,Linux-Irox,2013-02-08 00:16:00,
2013-02-07 16:17:00,45.9,17.1,29.57,North,0,0.2,0.0,20,0.00,,,-99.99,0.0,Linux-Irox,2013-02-08 00:17:00,
2013-02-07 16:27:00,45.3,16.5,29.57,SW,225,0.0,0.0,20,0.00,,,-99.99,0.0,Linux-Irox,2013-02-08 00:27:00,
2013-02-07 16:31:00,45.0,16.2,29.57,West,270,0.2,0.0,20,0.00,,,-99.99,0.0,Linux-Irox,2013-02-08 00:31:00,
2013-02-07 16:37:00,44.4,16.0,29.58,NE,45,0.2,0.0,21,0.00,,,-99.99,0.0,Linux-Irox,2013-02-08 00:37:00,
2013-02-07 16:46:00,43.2,21.2,29.58,NNW,337,0.0,0.0,39,0.03,,,-99.99,0.0,Linux-Irox,2013-02-08 00:46:00,
2013-02-07 16:47:00,42.4,21.2,29.58,NNW,337,0.2,2.9,41,0.05,,,-99.99,0.0,Linux-Irox,2013-02-08 00:47:00,
2013-02-07 16:57:00,38.7,17.1,29.56,NE,45,0.7,0.0,40,0.05,,,-99.99,0.0,Linux-Irox,2013-02-08 00:57:00,
2013-02-07 17:01:00,38.7,18.1,29.56,North,0,0.9,0.0,43,0.05,,,-99.99,0.0,Linux-Irox,2013-02-08 01:01:00,
2013-02-07 17:07:00,38.8,19.4,29.56,NE,45,0.2,0.0,46,0.08,,,-99.99,0.0,Linux-Irox,2013-02-08 01:07:00,
2013-02-07 17:16:00,39.0,20.3,29.56,NNE,22,0.0,0.0,48,0.08,,,-99.99,0.0,Linux-Irox,2013-02-08 01:16:00,
2013-02-07 17:17:00,39.0,20.3,29.56,NNE,22,0.0,0.0,48,0.08,,,-99.99,0.0,Linux-Irox,2013-02-08 01:17:00,
2013-02-07 17:27:00,38.5,20.8,29.56,NNE,22,0.0,0.0,51,0.08,,,-99.99,0.0,Linux-Irox,2013-02-08 01:27:00,
2013-02-07 17:31:00,38.5,21.2,29.56,NNE,22,0.0,0.0,52,0.08,,,-99.99,0.0,Linux-Irox,2013-02-08 01:31:00,
2013-02-07 17:37:00,38.5,21.6,29.56,NNE,22,0.0,0.0,53,0.08,,,-99.99,0.0,Linux-Irox,2013-02-08 01:37:00,
2013-02-07 17:46:00,38.8,22.6,29.56,NNE,22,0.0,2.2,55,0.08,,,-99.99,0.0,Linux-Irox,2013-02-08 01:46:00,
2013-02-07 17:47:00,38.8,22.6,29.56,WSW,247,0.0,0.0,55,0.08,,,-99.99,0.0,Linux-Irox,2013-02-08 01:47:00,
2013-02-07 17:57:00,38.8,23.0,29.57,NW,315,0.2,0.9,56,0.05,,,-99.99,0.0,Linux-Irox,2013-02-08 01:57:00,
2013-02-07 18:02:00,39.2,23.4,29.57,West,270,0.4,0.0,56,0.05,,,-99.99,0.0,Linux-Irox,2013-02-08 02:02:00,
2013-02-07 18:07:00,38.7,22.8,29.57,NNE,22,0.0,0.0,56,0.05,,,-99.99,0.0,Linux-Irox,2013-02-08 02:07:00,
2013-02-07 18:16:00,38.8,23.4,29.57,NNE,22,0.4,0.0,57,0.03,,,-99.99,0.0,Linux-Irox,2013-02-08 02:16:00,
2013-02-07 18:17:00,38.8,23.4,29.56,NNE,22,0.2,0.0,57,0.03,,,-99.99,0.0,Linux-Irox,2013-02-08 02:17:00,
2013-02-07 18:27:00,39.2,23.7,29.56,NW,315,0.0,0.0,57,0.05,,,-99.99,0.0,Linux-Irox,2013-02-08 02:27:00,
2013-02-07 18:31:00,39.4,24.3,29.56,ENE,67,0.2,0.0,58,0.05,,,-99.99,0.0,Linux-Irox,2013-02-08 02:31:00,
2013-02-07 18:37:00,39.4,24.3,29.56,ENE,67,0.0,0.0,58,0.05,,,-99.99,0.0,Linux-Irox,2013-02-08 02:37:00,
2013-02-07 18:46:00,39.4,24.3,29.56,NNE,22,0.0,0.0,58,0.05,,,-99.99,0.0,Linux-Irox,2013-02-08 02:46:00,
2013-02-07 18:47:00,39.4,24.6,29.56,North,0,0.0,0.0,59,0.05,,,-99.99,0.0,Linux-Irox,2013-02-08 02:47:00,
2013-02-07 18:57:00,39.2,24.4,29.55,NNE,22,0.0,0.0,59,0.05,,,-99.99,0.0,Linux-Irox,2013-02-08 02:57:00,
2013-02-07 19:01:00,39.2,24.4,29.55,NW,315,0.0,0.0,59,0.03,,,-99.99,0.0,Linux-Irox,2013-02-08 03:01:00,
2013-02-07 19:07:00,39.0,24.3,29.55,NNE,22,0.0,0.0,59,0.03,,,-99.99,0.0,Linux-Irox,2013-02-08 03:07:00,
2013-02-07 19:16:00,39.2,24.4,29.55,NNE,22,0.0,0.0,59,0.03,,,-99.99,0.0,Linux-Irox,2013-02-08 03:16:00,
2013-02-07 19:17:00,39.2,24.4,29.55,NW,315,0.0,0.0,59,0.03,,,-99.99,0.0,Linux-Irox,2013-02-08 03:17:00,
2013-02-07 19:27:00,39.4,24.6,29.55,North,0,0.0,0.0,59,0.03,,,-99.99,0.0,Linux-Irox,2013-02-08 03:27:00,
2013-02-07 19:31:00,39.4,24.6,29.55,NNE,22,0.0,0.0,59,0.00,,,-99.99,0.0,Linux-Irox,2013-02-08 03:31:00,
2013-02-07 19:37:00,39.2,24.4,29.54,NNE,22,0.0,0.0,59,0.00,,,-99.99,0.0,Linux-Irox,2013-02-08 03:37:00,
2013-02-07 19:46:00,38.7,23.9,29.54,NNE,22,0.0,0.0,59,0.00,,,-99.99,0.0,Linux-Irox,2013-02-08 03:46:00,
2013-02-07 19:47:00,38.7,23.9,29.54,NW,315,0.0,0.0,59,0.00,,,-99.99,0.0,Linux-Irox,2013-02-08 03:47:00,
2013-02-07 19:57:00,38.5,23.7,29.54,ESE,112,0.0,0.0,59,0.00,,,-99.99,0.0,Linux-Irox,2013-02-08 03:57:00,
2013-02-07 20:01:00,38.1,23.0,29.54,ENE,67,0.0,0.0,58,0.00,,,-99.99,0.0,Linux-Irox,2013-02-08 04:01:00,
2013-02-07 20:07:00,37.9,22.8,29.54,NE,45,0.0,0.0,58,0.00,,,-99.99,0.0,Linux-Irox,2013-02-08 04:07:00,
2013-02-07 20:17:00,37.6,22.5,29.55,NNE,22,0.0,0.0,58,0.00,,,-99.99,0.0,Linux-Irox,2013-02-08 04:17:00,
2013-02-07 20:27:00,38.1,23.0,29.55,NNE,22,0.0,0.0,58,0.00,,,-99.99,0.0,Linux-Irox,2013-02-08 04:27:00,
2013-02-07 20:37:00,38.5,23.7,29.54,NE,45,0.0,0.0,59,0.00,,,-99.99,0.0,Linux-Irox,2013-02-08 04:37:00,
2013-02-07 20:47:00,37.9,23.2,29.54,NE,45,0.0,0.0,59,0.00,,,-99.99,0.0,Linux-Irox,2013-02-08 04:47:00,
2013-02-07 20:57:00,37.8,23.0,29.54,NNE,22,0.0,0.0,59,0.00,,,-99.99,0.0,Linux-Irox,2013-02-08 04:57:00,
2013-02-07 21:07:00,37.8,22.6,29.54,SE,135,0.0,0.0,58,0.00,,,-99.99,0.0,Linux-Irox,2013-02-08 05:07:00,
2013-02-07 21:17:00,37.4,22.3,29.54,West,270,0.0,0.0,58,0.00,,,-99.99,0.0,Linux-Irox,2013-02-08 05:17:00,
2013-02-07 21:27:00,37.8,22.6,29.54,ESE,112,0.0,0.0,58,0.00,,,-99.99,0.0,Linux-Irox,2013-02-08 05:27:00,
2013-02-07 21:37:00,37.8,23.0,29.54,NNE,22,0.0,0.0,59,0.00,,,-99.99,0.0,Linux-Irox,2013-02-08 05:37:00,
2013-02-07 21:47:00,37.4,22.6,29.54,SSE,157,0.0,0.0,59,0.00,,,-99.99,0.0,Linux-Irox,2013-02-08 05:47:00,
2013-02-07 21:57:00,36.9,22.1,29.53,WSW,247,0.0,0.0,59,0.03,,,-99.99,0.0,Linux-Irox,2013-02-08 05:57:00,
2013-02-07 22:07:00,36.3,21.2,29.53,ESE,112,0.0,0.0,58,0.03,,,-99.99,0.0,Linux-Irox,2013-02-08 06:07:00,
2013-02-07 22:17:00,36.1,21.0,29.53,NE,45,0.0,0.0,58,0.03,,,-99.99,0.0,Linux-Irox,2013-02-08 06:17:00,
2013-02-07 22:27:00,36.0,20.5,29.53,NNE,22,0.0,0.0,57,0.03,,,-99.99,0.0,Linux-Irox,2013-02-08 06:27:00,
2013-02-07 22:37:00,35.8,20.3,29.53,North,0,0.0,0.0,57,0.03,,,-99.99,0.0,Linux-Irox,2013-02-08 06:37:00,
2013-02-07 22:47:00,35.6,20.1,29.53,NE,45,0.0,0.0,57,0.03,,,-99.99,0.0,Linux-Irox,2013-02-08 06:47:00,
2013-02-07 22:57:00,35.4,20.3,29.53,NNE,22,0.0,0.0,58,0.03,,,-99.99,0.0,Linux-Irox,2013-02-08 06:57:00,
2013-02-07 23:07:00,35.2,20.1,29.53,NNE,22,0.0,0.0,58,0.00,,,-99.99,0.0,Linux-Irox,2013-02-08 07:07:00,
2013-02-07 23:17:00,35.1,19.9,29.53,NNE,22,0.0,0.0,58,0.00,,,-99.99,0.0,Linux-Irox,2013-02-08 07:17:00,
2013-02-07 23:27:00,34.5,19.0,29.53,NE,45,0.0,0.0,57,0.00,,,-99.99,0.0,Linux-Irox,2013-02-08 07:27:00,
2013-02-07 23:37:00,34.5,19.0,29.52,East,90,0.0,0.0,57,0.00,,,-99.99,0.0,Linux-Irox,2013-02-08 07:37:00,
2013-02-07 23:47:00,34.7,19.6,29.52,NNE,22,0.0,0.0,58,0.00,,,-99.99,0.0,Linux-Irox,2013-02-08 07:47:00,
2013-02-07 23:57:00,34.9,19.8,29.53,South,180,0.0,1.1,58,0.00,,,-99.99,0.0,Linux-Irox,2013-02-08 07:57:00,